Marull, Argentina
Current Conditions -  °F | °C
As of 12:00 PM on Thursday 23 Oct 2014 (Local Time) from SACO Reporting Station
Clear Clear  
Wind Chill: 90°   Ceiling: Unl
Heat Index: 90°   Visibility: 6mi
Dew Point: 52°   Wind: 14mph
Humidity: 27%   Direction: 20°NNE
Pressure: 30.03"   Gusts: NA
Location:  30.97°S, 62.83°W
Report Text: SACO 231500Z 02012KT CAVOK 32/11 Q1017
Loading
Personal Weather Stations






























Interactive Weather Map
Tropical Storm Tracking
New forecast layout! Learn more

10-Day Weather Forecast

Advertisements
Track Severe Weather on mobile